createdAt,value
2023-03-10T00:00:56.896Z,10
2023-03-10T00:01:38.609Z,9.9
2023-03-10T00:02:38.670Z,9.9
2023-03-10T00:03:56.648Z,9.9
2023-03-10T00:04:38.761Z,9.9
2023-03-10T00:05:38.835Z,9.9
2023-03-10T00:06:57.838Z,9.9
2023-03-10T00:07:38.809Z,9.9
2023-03-10T00:08:38.858Z,10
2023-03-10T00:09:59.089Z,10
2023-03-10T00:10:38.900Z,10
2023-03-10T00:11:38.928Z,10
2023-03-10T00:12:57.233Z,10
2023-03-10T00:13:38.998Z,10
2023-03-10T00:14:39.031Z,10.1
2023-03-10T00:15:41.023Z,10.1
2023-03-10T00:16:39.071Z,10
2023-03-10T00:17:39.132Z,10
2023-03-10T00:18:58.152Z,10
2023-03-10T00:19:39.269Z,10
2023-03-10T00:20:39.211Z,10
2023-03-10T00:21:58.465Z,10
2023-03-10T00:22:39.286Z,10
2023-03-10T00:23:39.354Z,10
2023-03-10T00:24:59.400Z,10
2023-03-10T00:25:39.441Z,10.1
2023-03-10T00:26:39.446Z,10.1
2023-03-10T00:27:59.656Z,10.1
2023-03-10T00:28:39.521Z,10.1
2023-03-10T00:29:39.501Z,10.1
2023-03-10T00:30:58.350Z,10.1
2023-03-10T00:31:39.662Z,10.1
2023-03-10T00:32:39.736Z,10.1
2023-03-10T00:33:58.187Z,10.1
2023-03-10T00:34:39.725Z,10.1
2023-03-10T00:35:39.718Z,10.1
2023-03-10T00:36:58.810Z,10.1
2023-03-10T00:37:39.815Z,10.1
2023-03-10T00:38:39.897Z,10.1
2023-03-10T00:40:00.083Z,10.1
2023-03-10T00:40:39.916Z,10.1
2023-03-10T00:41:40.007Z,10.1
2023-03-10T00:42:58.278Z,10.1
2023-03-10T00:43:40.086Z,10.2
2023-03-10T00:44:40.086Z,10.2
2023-03-10T00:46:00.222Z,10.2
2023-03-10T00:46:40.240Z,10.1
2023-03-10T00:47:40.202Z,10.1
2023-03-10T00:48:59.300Z,10.1
2023-03-10T00:49:40.313Z,10.1
2023-03-10T00:50:40.338Z,10.1
2023-03-10T00:52:01.066Z,10.1
2023-03-10T00:52:40.491Z,10.1
2023-03-10T00:53:40.538Z,10.1
2023-03-10T00:55:00.598Z,10.2
2023-03-10T00:55:40.653Z,10.1
2023-03-10T00:56:40.700Z,10.1
2023-03-10T00:58:01.709Z,10.1
2023-03-10T00:58:40.841Z,10.2
2023-03-10T00:59:49.860Z,10.1
2023-03-10T01:01:01.722Z,10.1
2023-03-10T01:01:41.118Z,10.1
2023-03-10T01:02:41.088Z,10.1
2023-03-10T01:03:59.243Z,10.1
2023-03-10T01:04:41.325Z,10.2
2023-03-10T01:05:41.327Z,10.2
2023-03-10T01:07:00.209Z,10.1
2023-03-10T01:07:41.375Z,10.2
2023-03-10T01:08:41.395Z,10.2
2023-03-10T01:09:58.653Z,10.2
2023-03-10T01:10:41.507Z,10.1
2023-03-10T01:11:41.519Z,10.1
2023-03-10T01:13:03.250Z,10
2023-03-10T01:13:41.593Z,10.1
2023-03-10T01:14:41.623Z,10.1
2023-03-10T01:15:41.703Z,10
2023-03-10T01:16:41.705Z,10
2023-03-10T01:17:41.735Z,10.1
2023-03-10T01:19:08.414Z,10
2023-03-10T01:19:41.781Z,10
2023-03-10T01:20:41.833Z,10
2023-03-10T01:22:12.616Z,10
2023-03-10T01:22:41.882Z,10.1
2023-03-10T01:23:41.959Z,10.1
2023-03-10T01:25:19.835Z,10.1
2023-03-10T01:25:45.042Z,10
2023-03-10T01:26:42.123Z,10.1
2023-03-10T01:27:42.645Z,10.1
2023-03-10T01:29:02.592Z,10
2023-03-10T01:29:44.113Z,10
2023-03-10T01:31:03.417Z,10
2023-03-10T01:31:58.267Z,9.9
2023-03-10T01:33:04.357Z,9.9
2023-03-10T01:33:42.240Z,9.9
2023-03-10T01:35:36.084Z,9.9
2023-03-10T01:35:42.339Z,10
2023-03-10T01:36:42.382Z,10
2023-03-10T01:37:44.407Z,10
2023-03-10T01:38:42.423Z,10
2023-03-10T01:39:42.450Z,10
2023-03-10T01:40:42.453Z,10
2023-03-10T01:42:10.694Z,10
2023-03-10T01:42:42.587Z,10
2023-03-10T01:43:46.523Z,9.9
2023-03-10T01:44:56.803Z,10
2023-03-10T01:45:42.650Z,9.9
2023-03-10T01:46:42.815Z,9.9
2023-03-10T01:47:42.732Z,9.9
2023-03-10T01:48:42.766Z,10
2023-03-10T01:49:42.780Z,10
2023-03-10T01:50:42.817Z,10
2023-03-10T01:51:42.844Z,9.9
2023-03-10T01:52:42.929Z,9.9
2023-03-10T01:53:43.039Z,9.9
2023-03-10T01:54:42.973Z,9.9
2023-03-10T01:55:55.451Z,10
2023-03-10T01:56:56.265Z,9.9
2023-03-10T01:57:52.138Z,9.9
2023-03-10T01:58:43.226Z,9.9
2023-03-10T01:59:55.011Z,9.9
2023-03-10T02:00:43.283Z,9.9
2023-03-10T02:01:58.386Z,9.9
2023-03-10T02:02:54.634Z,9.9
2023-03-10T02:03:56.161Z,9.9
2023-03-10T02:04:43.555Z,9.9
2023-03-10T02:06:19.453Z,9.9
2023-03-10T02:06:43.708Z,9.9
2023-03-10T02:07:56.611Z,9.9
2023-03-10T02:08:56.468Z,9.8
2023-03-10T02:09:56.911Z,9.9
2023-03-10T02:10:45.088Z,9.8
2023-03-10T02:11:59.789Z,9.8
2023-03-10T02:12:44.115Z,9.8
2023-03-10T02:13:44.160Z,9.8
2023-03-10T02:14:56.635Z,9.8
2023-03-10T02:15:44.193Z,9.8
2023-03-10T02:16:44.355Z,9.8
2023-03-10T02:17:57.065Z,9.7
2023-03-10T02:18:44.401Z,9.7
2023-03-10T02:19:44.421Z,9.7
2023-03-10T02:20:56.868Z,9.7
2023-03-10T02:21:44.487Z,9.7
2023-03-10T02:22:44.581Z,9.6
2023-03-10T02:24:01.196Z,9.6
2023-03-10T02:24:44.605Z,9.6
2023-03-10T02:25:44.632Z,9.6
2023-03-10T02:26:56.372Z,9.6
2023-03-10T02:27:44.687Z,9.6
2023-03-10T02:28:44.724Z,9.6
2023-03-10T02:29:59.887Z,9.6
2023-03-10T02:30:44.827Z,9.6
2023-03-10T02:31:44.852Z,9.6
2023-03-10T02:32:56.527Z,9.6
2023-03-10T02:33:44.872Z,9.6
2023-03-10T02:34:44.912Z,9.6
2023-03-10T02:35:45.001Z,9.5
2023-03-10T02:36:45.012Z,9.5
2023-03-10T02:37:45.001Z,9.5
2023-03-10T02:38:45.080Z,9.4
2023-03-10T02:39:45.082Z,9.3
2023-03-10T02:40:45.137Z,9.3
2023-03-10T02:41:45.627Z,9.3
2023-03-10T02:42:45.202Z,9.3
2023-03-10T02:43:45.233Z,9.3
2023-03-10T02:44:45.253Z,9.3
2023-03-10T02:45:45.499Z,9.2
2023-03-10T02:46:45.315Z,9.2
2023-03-10T02:47:45.342Z,9.3
2023-03-10T02:48:45.436Z,9.3
2023-03-10T02:49:45.410Z,9.3
2023-03-10T02:50:45.544Z,9.3
2023-03-10T02:51:45.462Z,9.2
2023-03-10T02:52:45.574Z,9.2
2023-03-10T02:53:45.549Z,9.3
2023-03-10T02:54:45.598Z,9.3
2023-03-10T02:55:45.621Z,9.3
2023-03-10T02:56:45.650Z,9.3
2023-03-10T02:57:45.673Z,9.3
2023-03-10T02:58:45.742Z,9.2
2023-03-10T02:59:45.764Z,9.2
2023-03-10T03:00:45.802Z,9.2
2023-03-10T03:01:45.805Z,9.2
2023-03-10T03:02:45.895Z,9.2
2023-03-10T03:03:45.888Z,9.2
2023-03-10T03:04:45.917Z,9.2
2023-03-10T03:05:45.956Z,9.2
2023-03-10T03:06:45.974Z,9.1
2023-03-10T03:07:46.012Z,9.2
2023-03-10T03:08:56.481Z,9.2
2023-03-10T03:09:46.050Z,9.1
2023-03-10T03:10:46.198Z,9.1
2023-03-10T03:11:56.239Z,9.2
2023-03-10T03:12:46.219Z,9.2
2023-03-10T03:13:46.296Z,9.1
2023-03-10T03:14:56.308Z,9.1
2023-03-10T03:15:46.420Z,9.1
2023-03-10T03:16:46.528Z,9.2
2023-03-10T03:17:58.674Z,9.2
2023-03-10T03:18:46.634Z,9.2
2023-03-10T03:19:46.734Z,9.2
2023-03-10T03:20:57.177Z,9.2
2023-03-10T03:21:46.870Z,9.1
2023-03-10T03:22:46.941Z,9.1
2023-03-10T03:24:00.278Z,9.1
2023-03-10T03:24:47.024Z,9.2
2023-03-10T03:25:47.066Z,9.2
2023-03-10T03:26:56.420Z,9.2
2023-03-10T03:27:47.207Z,9.2
2023-03-10T03:28:47.283Z,9.1
2023-03-10T03:30:01.102Z,9.1
2023-03-10T03:30:47.351Z,9.1
2023-03-10T03:31:47.450Z,9.1
2023-03-10T03:42:36.692Z,9.1
2023-03-10T03:42:47.789Z,9
2023-03-10T03:49:32.569Z,9
2023-03-10T03:49:47.965Z,9
2023-03-10T03:50:56.599Z,9.1
2023-03-10T03:51:48.057Z,9.1
2023-03-10T03:52:48.080Z,9.1
2023-03-10T03:54:01.811Z,9.1
2023-03-10T03:54:48.272Z,9.1
2023-03-10T03:55:48.184Z,9
2023-03-10T03:56:57.019Z,9
2023-03-10T03:57:48.287Z,9
2023-03-10T03:58:48.344Z,9
2023-03-10T03:59:59.373Z,9
2023-03-10T04:00:50.459Z,9
2023-03-10T04:01:48.414Z,8.9
2023-03-10T04:02:56.406Z,8.9
2023-03-10T04:03:48.500Z,8.9
2023-03-10T04:04:48.516Z,8.9
2023-03-10T04:06:05.353Z,8.9
2023-03-10T04:06:48.566Z,9
2023-03-10T04:07:48.585Z,8.9
2023-03-10T04:08:57.241Z,8.9
2023-03-10T04:09:48.671Z,8.9
2023-03-10T04:10:48.680Z,8.9
2023-03-10T04:12:00.418Z,9
2023-03-10T04:12:48.805Z,9
2023-03-10T04:13:48.815Z,8.9
2023-03-10T04:15:00.577Z,8.9
2023-03-10T04:15:48.954Z,8.9
2023-03-10T04:16:48.915Z,8.9
2023-03-10T04:18:03.226Z,8.9
2023-03-10T04:18:49.014Z,8.9
2023-03-10T04:19:57.288Z,8.9
2023-03-10T04:20:57.578Z,8.9
2023-03-10T04:21:49.072Z,8.9
2023-03-10T04:22:49.106Z,8.8
2023-03-10T04:24:01.591Z,8.8
2023-03-10T04:24:49.217Z,8.8
2023-03-10T04:25:49.291Z,8.8
2023-03-10T04:26:56.290Z,8.8
2023-03-10T04:27:49.426Z,8.8
2023-03-10T04:28:49.523Z,8.8
2023-03-10T04:29:58.918Z,8.8
2023-03-10T04:31:31.747Z,8.8
2023-03-10T04:32:02.791Z,8.9
2023-03-10T04:32:49.857Z,8.8
2023-03-10T04:33:49.920Z,8.9
2023-03-10T04:34:50.083Z,8.9
2023-03-10T04:35:50.092Z,8.9
2023-03-10T04:36:50.048Z,8.8
2023-03-10T04:37:50.112Z,8.8
2023-03-10T04:38:50.152Z,8.8
2023-03-10T04:39:50.181Z,8.8
2023-03-10T04:40:50.307Z,8.8
2023-03-10T04:41:50.341Z,8.8
2023-03-10T04:42:50.382Z,8.8
2023-03-10T04:43:50.411Z,8.8
2023-03-10T04:44:50.409Z,8.8
2023-03-10T04:45:50.531Z,8.8
2023-03-10T04:46:50.518Z,8.8
2023-03-10T04:47:50.513Z,8.9
2023-03-10T04:48:50.582Z,8.9
2023-03-10T04:49:50.715Z,8.9
2023-03-10T04:50:50.609Z,8.9
2023-03-10T04:51:50.641Z,8.9
2023-03-10T04:52:50.714Z,8.9
2023-03-10T04:53:50.774Z,8.9
2023-03-10T04:54:50.741Z,8.9
2023-03-10T04:55:50.785Z,8.8
2023-03-10T04:56:50.838Z,8.8
2023-03-10T04:57:50.840Z,8.8
2023-03-10T04:58:50.893Z,8.9
2023-03-10T04:59:50.950Z,8.9
2023-03-10T05:01:02.113Z,8.9
2023-03-10T05:01:51.060Z,8.8
2023-03-10T05:02:50.987Z,8.8
2023-03-10T05:03:51.114Z,8.8
2023-03-10T05:04:51.160Z,8.8
2023-03-10T05:05:51.116Z,8.8
2023-03-10T05:06:51.163Z,8.8
2023-03-10T05:07:51.172Z,8.8
2023-03-10T05:08:51.180Z,8.8
2023-03-10T05:09:51.218Z,8.8
2023-03-10T05:10:51.317Z,8.8
2023-03-10T05:11:51.301Z,8.8
2023-03-10T05:12:51.315Z,8.9
2023-03-10T05:13:51.330Z,8.9
2023-03-10T05:14:51.364Z,8.9
2023-03-10T05:15:51.466Z,8.9
2023-03-10T05:16:51.456Z,8.9
2023-03-10T05:17:51.501Z,8.9
2023-03-10T05:18:51.518Z,8.9
2023-03-10T05:19:51.570Z,8.9
2023-03-10T05:20:51.604Z,8.9
2023-03-10T05:21:51.633Z,8.9
2023-03-10T05:22:51.623Z,8.9
2023-03-10T05:23:51.686Z,8.9
2023-03-10T05:24:51.691Z,8.9
2023-03-10T05:26:02.946Z,9
2023-03-10T05:26:51.742Z,9
2023-03-10T05:27:51.780Z,8.9
2023-03-10T05:28:51.852Z,8.9
2023-03-10T05:29:51.830Z,8.9
2023-03-10T05:30:52.065Z,8.9
2023-03-10T05:31:51.932Z,9
2023-03-10T05:32:52.009Z,9
2023-03-10T05:33:51.985Z,9
2023-03-10T05:34:52.061Z,9
2023-03-10T05:35:52.067Z,9
2023-03-10T05:36:52.169Z,8.9
2023-03-10T05:37:52.237Z,8.9
2023-03-10T05:38:52.271Z,8.9
2023-03-10T05:39:52.351Z,9
2023-03-10T05:40:52.427Z,9
2023-03-10T05:41:52.483Z,9
2023-03-10T05:42:52.555Z,8.9
2023-03-10T05:43:52.635Z,8.9
2023-03-10T05:44:52.686Z,8.9
2023-03-10T05:45:52.801Z,8.9
2023-03-10T05:46:52.884Z,9
2023-03-10T05:47:52.904Z,9
2023-03-10T05:48:52.982Z,9
2023-03-10T05:50:01.125Z,8.9
2023-03-10T05:50:53.069Z,8.9
2023-03-10T05:51:53.127Z,8.9
2023-03-10T05:52:53.187Z,8.9
2023-03-10T05:53:53.229Z,8.9
2023-03-10T05:54:53.262Z,9
2023-03-10T05:56:01.688Z,8.9
2023-03-10T05:56:53.341Z,8.9
2023-03-10T05:57:53.364Z,8.9
2023-03-10T05:58:53.375Z,8.9
2023-03-10T05:59:53.452Z,8.9
2023-03-10T06:00:53.461Z,9
2023-03-10T06:02:11.000Z,8.9
2023-03-10T06:02:53.680Z,8.9
2023-03-10T06:03:53.609Z,8.9
2023-03-10T06:04:53.564Z,8.9
2023-03-10T06:05:53.725Z,8.8
2023-03-10T06:06:53.658Z,8.8
2023-03-10T06:08:04.667Z,8.9
2023-03-10T06:08:53.717Z,8.8
2023-03-10T06:09:53.711Z,8.8
2023-03-10T06:10:53.829Z,8.8
2023-03-10T06:11:53.792Z,8.7
2023-03-10T06:12:53.858Z,8.7
2023-03-10T06:14:06.761Z,8.6
2023-03-10T06:14:53.892Z,8.6
2023-03-10T06:15:54.215Z,8.6
2023-03-10T06:16:53.995Z,8.6
2023-03-10T06:17:54.008Z,8.6
2023-03-10T06:18:54.065Z,8.6
2023-03-10T06:20:09.772Z,8.6
2023-03-10T06:20:54.132Z,8.5
2023-03-10T06:21:54.193Z,8.5
2023-03-10T06:22:54.150Z,8.5
2023-03-10T06:23:54.266Z,8.6
2023-03-10T06:24:54.270Z,8.6
2023-03-10T06:26:10.187Z,8.6
2023-03-10T06:26:54.307Z,8.6
2023-03-10T06:27:54.318Z,8.6
2023-03-10T06:28:54.323Z,8.6
2023-03-10T06:29:54.373Z,8.6
2023-03-10T06:30:54.446Z,8.6
2023-03-10T06:31:55.015Z,8.6
2023-03-10T06:32:54.565Z,8.6
2023-03-10T06:33:54.494Z,8.5
2023-03-10T06:34:55.110Z,8.5
2023-03-10T06:35:54.603Z,8.5
2023-03-10T06:36:54.600Z,8.5
2023-03-10T06:38:11.964Z,8.4
2023-03-10T06:38:54.609Z,8.5
2023-03-10T06:39:54.667Z,8.5
2023-03-10T06:40:59.734Z,8.5
2023-03-10T06:41:55.364Z,8.4
2023-03-10T06:42:54.779Z,8.5
2023-03-10T06:44:14.738Z,8.5
2023-03-10T06:44:54.866Z,8.4
2023-03-10T06:45:54.867Z,8.5
2023-03-10T06:46:54.874Z,8.5
2023-03-10T06:47:54.932Z,8.6
2023-03-10T06:48:55.046Z,8.5
2023-03-10T06:50:13.249Z,8.5
2023-03-10T06:50:55.246Z,8.5
2023-03-10T06:51:55.231Z,8.5
2023-03-10T06:52:55.374Z,8.4
2023-03-10T06:53:55.473Z,8.4
2023-03-10T06:54:55.514Z,8.3
2023-03-10T06:56:09.783Z,8.3
2023-03-10T06:56:55.575Z,8.3
2023-03-10T06:57:55.651Z,8.3
2023-03-10T06:58:55.714Z,8.2
2023-03-10T06:59:55.731Z,8.2
2023-03-10T07:00:55.993Z,8.1
2023-03-10T07:02:13.497Z,8.1
2023-03-10T07:02:56.045Z,8.2
2023-03-10T07:03:56.121Z,8.2
2023-03-10T07:04:57.992Z,8.3
2023-03-10T07:05:56.167Z,8.2
2023-03-10T07:06:56.207Z,8.2
2023-03-10T07:08:14.010Z,8.3
2023-03-10T07:08:57.100Z,8.2
2023-03-10T07:09:57.656Z,8.2
2023-03-10T07:10:59.203Z,8.3
2023-03-10T07:11:56.302Z,8.3
2023-03-10T07:12:57.655Z,8.3
2023-03-10T07:14:19.077Z,8.4
2023-03-10T07:14:56.412Z,8.4
2023-03-10T07:16:07.578Z,8.4
2023-03-10T07:16:56.526Z,8.4
2023-03-10T07:18:01.537Z,8.4
2023-03-10T07:18:56.541Z,8.5
2023-03-10T07:20:02.977Z,8.6
2023-03-10T07:21:01.645Z,8.6
2023-03-10T07:21:58.927Z,8.6
2023-03-10T07:22:58.091Z,8.7
2023-03-10T07:23:57.720Z,8.7
2023-03-10T07:24:56.713Z,8.7
2023-03-10T07:26:00.383Z,8.7
2023-03-10T07:26:56.828Z,8.7
2023-03-10T07:27:57.432Z,8.7
2023-03-10T07:28:56.844Z,8.8
2023-03-10T07:29:58.654Z,8.8
2023-03-10T07:30:56.950Z,8.8
2023-03-10T07:32:24.128Z,8.8
2023-03-10T07:32:57.031Z,8.8
2023-03-10T07:33:57.931Z,8.8
2023-03-10T07:35:00.246Z,8.8
2023-03-10T07:36:00.495Z,8.8
2023-03-10T07:36:57.160Z,8.8
2023-03-10T07:38:08.487Z,8.9
2023-03-10T07:38:57.199Z,8.9
2023-03-10T07:40:06.316Z,8.9
2023-03-10T07:41:05.689Z,8.9
2023-03-10T07:42:02.717Z,8.9
2023-03-10T07:42:57.266Z,8.9
2023-03-10T07:44:04.532Z,9
2023-03-10T07:44:57.308Z,9
2023-03-10T07:46:07.784Z,9
2023-03-10T07:46:57.897Z,9.1
2023-03-10T07:48:06.506Z,9.1
2023-03-10T07:48:57.461Z,9.1
2023-03-10T07:50:04.914Z,9.1
2023-03-10T07:50:57.504Z,9.1
2023-03-10T07:52:07.926Z,9.1
2023-03-10T07:52:59.147Z,9.1
2023-03-10T07:54:08.093Z,9.1
2023-03-10T07:54:57.580Z,9.2
2023-03-10T07:56:05.481Z,9.2
2023-03-10T07:56:57.734Z,9.2
2023-03-10T07:57:57.697Z,9.2
2023-03-10T07:58:58.066Z,9.3
2023-03-10T07:59:57.787Z,9.3
2023-03-10T08:00:57.907Z,9.3
2023-03-10T08:02:08.232Z,9.3
2023-03-10T08:02:58.045Z,9.4
2023-03-10T08:03:58.445Z,9.4
2023-03-10T08:04:58.415Z,9.4
2023-03-10T08:05:58.264Z,9.4
2023-03-10T08:06:58.327Z,9.5
2023-03-10T08:08:05.635Z,9.6
2023-03-10T08:08:58.477Z,9.6
2023-03-10T08:09:58.531Z,9.6
2023-03-10T08:10:59.798Z,9.6
2023-03-10T08:11:58.742Z,9.7
2023-03-10T08:12:58.789Z,9.7
2023-03-10T08:14:05.717Z,9.7
2023-03-10T08:15:03.881Z,9.7
2023-03-10T08:15:59.035Z,9.8
2023-03-10T08:16:58.984Z,9.8
2023-03-10T08:17:59.029Z,9.8
2023-03-10T08:18:59.043Z,9.9
2023-03-10T08:20:04.782Z,9.9
2023-03-10T08:20:59.150Z,9.9
2023-03-10T08:21:59.126Z,10
2023-03-10T08:22:59.310Z,10
2023-03-10T08:23:59.179Z,10.1
2023-03-10T08:24:59.201Z,10.1
2023-03-10T08:26:06.687Z,10.1
2023-03-10T08:26:59.293Z,10.1
2023-03-10T08:27:59.295Z,10
2023-03-10T08:28:59.730Z,10
2023-03-10T08:29:59.421Z,10.1
2023-03-10T08:31:04.580Z,10
2023-03-10T08:32:13.489Z,10.1
2023-03-10T08:32:59.502Z,10.1
2023-03-10T08:33:59.498Z,10
2023-03-10T08:35:02.402Z,10.1
2023-03-10T08:35:59.578Z,10.1
2023-03-10T08:36:59.603Z,10
2023-03-10T08:38:06.766Z,10
2023-03-10T08:38:59.666Z,10
2023-03-10T08:39:59.682Z,10
2023-03-10T08:41:00.256Z,10
2023-03-10T08:41:59.728Z,10
2023-03-10T08:42:59.816Z,10
2023-03-10T08:44:09.421Z,9.9
2023-03-10T08:44:59.784Z,9.9
2023-03-10T08:45:59.859Z,9.9
2023-03-10T08:47:03.292Z,9.9
2023-03-10T08:47:59.885Z,9.9
2023-03-10T08:48:59.963Z,9.9
2023-03-10T08:50:09.858Z,10
2023-03-10T08:51:00.041Z,10
2023-03-10T08:52:00.056Z,10.1
2023-03-10T08:53:00.510Z,10.1
2023-03-10T08:54:00.160Z,10.1
2023-03-10T08:55:00.168Z,10.1
2023-03-10T08:56:06.792Z,10.1
2023-03-10T08:57:00.208Z,10.1
2023-03-10T08:58:00.226Z,10.1
2023-03-10T08:59:07.189Z,10.1
2023-03-10T09:00:06.500Z,10.2
2023-03-10T09:01:03.959Z,10.2
2023-03-10T09:02:00.470Z,10.2
2023-03-10T09:03:00.821Z,10.2
2023-03-10T09:04:01.767Z,10.2
2023-03-10T09:05:11.844Z,10.2
2023-03-10T09:06:00.474Z,10.2
2023-03-10T09:07:00.508Z,10.2
2023-03-10T09:08:15.231Z,10.2
2023-03-10T09:09:05.541Z,10.2
2023-03-10T09:10:06.008Z,10.2
2023-03-10T09:11:05.392Z,10.2
2023-03-10T09:12:00.732Z,10.2
2023-03-10T09:13:13.195Z,10.2
2023-03-10T09:14:15.668Z,10.1
2023-03-10T09:15:00.933Z,10.1
2023-03-10T09:16:01.034Z,10.2
2023-03-10T09:17:21.940Z,10.2
2023-03-10T09:18:01.127Z,10.3
2023-03-10T09:19:01.209Z,10.2
2023-03-10T09:20:14.287Z,10.3
2023-03-10T09:21:01.305Z,10.3
2023-03-10T09:22:01.387Z,10.3
2023-03-10T09:23:14.632Z,10.3
2023-03-10T09:24:03.521Z,10.3
2023-03-10T09:25:01.573Z,10.3
2023-03-10T09:26:14.474Z,10.3
2023-03-10T09:27:01.701Z,10.3
2023-03-10T09:28:01.771Z,10.4
2023-03-10T09:29:20.329Z,10.4
2023-03-10T09:30:02.120Z,10.5
2023-03-10T09:31:01.872Z,10.6
2023-03-10T09:32:02.074Z,10.7
2023-03-10T09:33:02.042Z,10.7
2023-03-10T09:34:01.967Z,10.8
2023-03-10T09:35:21.145Z,10.8
2023-03-10T09:36:06.673Z,10.9
2023-03-10T09:37:02.094Z,10.9
2023-03-10T09:38:19.154Z,10.9
2023-03-10T09:39:02.146Z,10.9
2023-03-10T09:40:03.819Z,10.9
2023-03-10T09:41:20.566Z,10.8
2023-03-10T09:42:02.227Z,10.8
2023-03-10T09:43:02.245Z,10.8
2023-03-10T09:44:25.047Z,10.9
2023-03-10T09:45:02.352Z,10.9
2023-03-10T09:46:02.385Z,10.9
2023-03-10T09:47:25.111Z,10.9
2023-03-10T09:48:03.823Z,10.9
2023-03-10T09:49:02.546Z,10.9
2023-03-10T09:50:41.003Z,10.9
2023-03-10T09:51:07.080Z,10.9
2023-03-10T09:52:02.626Z,10.9
2023-03-10T09:53:04.545Z,10.9
2023-03-10T09:54:15.213Z,11
2023-03-10T09:55:08.293Z,11.1
2023-03-10T09:56:15.383Z,11.2
2023-03-10T09:58:26.295Z,11.1
2023-03-10T09:59:02.755Z,11.2
2023-03-10T10:00:02.904Z,11.2
2023-03-10T10:01:02.870Z,11
2023-03-10T10:02:02.885Z,10.9
2023-03-10T10:03:02.960Z,11
2023-03-10T10:04:03.058Z,11
2023-03-10T10:05:09.505Z,11
2023-03-10T10:06:03.062Z,11
2023-03-10T10:07:03.065Z,11
2023-03-10T10:08:03.030Z,11
2023-03-10T10:09:05.410Z,11.1
2023-03-10T10:10:03.161Z,11.1
2023-03-10T10:11:09.505Z,11.1
2023-03-10T10:12:03.225Z,11
2023-03-10T10:13:03.262Z,11
2023-03-10T10:14:03.287Z,11.1
2023-03-10T10:15:03.324Z,11.1
2023-03-10T10:16:18.610Z,11.1
2023-03-10T10:17:10.845Z,11.1
2023-03-10T10:18:16.053Z,11.2
2023-03-10T10:19:03.508Z,11.2
2023-03-10T10:20:03.492Z,11.3
2023-03-10T10:21:03.501Z,11.2
2023-03-10T10:22:03.503Z,11.2
2023-03-10T10:23:11.193Z,11.3
2023-03-10T10:24:03.675Z,11.5
2023-03-10T10:25:04.048Z,11.5
2023-03-10T10:26:03.802Z,11.7
2023-03-10T10:27:03.855Z,11.9
2023-03-10T10:28:03.894Z,12.2
2023-03-10T10:29:27.170Z,12.4
2023-03-10T10:30:04.019Z,12.8
2023-03-10T10:31:04.121Z,13.1
2023-03-10T10:32:04.207Z,13.1
2023-03-10T10:33:04.189Z,12.9
2023-03-10T10:34:04.207Z,12.6
2023-03-10T10:35:13.080Z,12.4
2023-03-10T10:36:04.345Z,12.3
2023-03-10T10:37:04.413Z,12.3
2023-03-10T10:38:04.483Z,12.5
2023-03-10T10:39:04.526Z,12.5
2023-03-10T10:40:04.662Z,12.4
2023-03-10T10:41:12.702Z,12.3
2023-03-10T10:42:04.678Z,12.1
2023-03-10T10:43:04.729Z,12
2023-03-10T10:44:04.779Z,11.9
2023-03-10T10:45:04.803Z,11.9
2023-03-10T10:46:04.877Z,11.8
2023-03-10T10:47:09.105Z,11.7
2023-03-10T10:48:04.863Z,11.7
2023-03-10T10:49:05.178Z,11.6
2023-03-10T10:50:04.900Z,11.7
2023-03-10T10:51:04.973Z,11.7
2023-03-10T10:52:04.978Z,11.8
2023-03-10T10:53:17.572Z,11.8
2023-03-10T10:54:05.037Z,11.8
2023-03-10T10:55:16.422Z,11.8
2023-03-10T10:56:05.127Z,11.8
2023-03-10T10:57:15.180Z,11.7
2023-03-10T10:58:05.233Z,11.6
2023-03-10T10:59:11.856Z,11.6
2023-03-10T11:00:05.276Z,11.5
2023-03-10T11:01:27.768Z,11.5
2023-03-10T11:02:05.299Z,11.4
2023-03-10T11:03:27.903Z,11.4
2023-03-10T11:04:05.368Z,11.3
2023-03-10T11:05:27.572Z,11.3
2023-03-10T11:06:05.427Z,11.3
2023-03-10T11:07:26.902Z,11.3
2023-03-10T11:08:05.497Z,11.2
2023-03-10T11:09:27.839Z,11.2
2023-03-10T11:10:05.574Z,11.1
2023-03-10T11:11:27.607Z,11.1
2023-03-10T11:12:05.635Z,11.1
2023-03-10T11:13:27.057Z,11.1
2023-03-10T11:14:05.724Z,11
2023-03-10T11:15:28.129Z,10.9
2023-03-10T11:16:05.833Z,10.9
2023-03-10T11:17:27.049Z,10.9
2023-03-10T11:18:05.899Z,10.8
2023-03-10T11:19:27.329Z,10.8
2023-03-10T11:20:05.915Z,10.8
2023-03-10T11:21:26.574Z,10.8
2023-03-10T11:22:05.978Z,10.8
2023-03-10T11:23:20.966Z,10.9
2023-03-10T11:24:06.072Z,10.9
2023-03-10T11:25:27.452Z,10.9
2023-03-10T11:26:06.127Z,10.8
2023-03-10T11:27:27.740Z,10.8
2023-03-10T11:28:06.198Z,10.8
2023-03-10T11:29:26.656Z,10.8
2023-03-10T11:30:06.270Z,10.8
2023-03-10T11:31:27.504Z,10.8
2023-03-10T11:32:06.340Z,10.8
2023-03-10T11:33:26.192Z,10.8
2023-03-10T11:34:06.502Z,10.8
2023-03-10T11:35:26.790Z,10.8
2023-03-10T11:36:06.698Z,10.9
2023-03-10T11:37:26.330Z,10.9
2023-03-10T11:38:06.758Z,10.9
2023-03-10T11:39:26.689Z,10.9
2023-03-10T11:40:06.853Z,10.8
2023-03-10T11:41:26.586Z,10.8
2023-03-10T11:42:06.992Z,10.8
2023-03-10T11:43:27.031Z,10.7
2023-03-10T11:44:07.121Z,10.7
2023-03-10T11:45:27.124Z,10.7
2023-03-10T11:46:07.344Z,10.6
2023-03-10T11:47:27.227Z,10.6
2023-03-10T11:48:07.438Z,10.5
2023-03-10T11:49:27.059Z,10.5
2023-03-10T11:50:07.442Z,10.4
2023-03-10T11:51:26.653Z,10.4
2023-03-10T11:52:07.523Z,10.3
2023-03-10T11:53:26.344Z,10.2
2023-03-10T11:54:07.602Z,10.2
2023-03-10T11:55:26.781Z,10.2
2023-03-10T11:56:07.658Z,10.1
2023-03-10T11:57:28.451Z,10.1
2023-03-10T11:58:07.700Z,10.1
2023-03-10T11:59:30.943Z,10
2023-03-10T12:00:07.822Z,10
2023-03-10T12:01:27.647Z,10
2023-03-10T12:02:07.824Z,9.9
2023-03-10T12:03:27.955Z,9.9
2023-03-10T12:04:07.911Z,9.9
2023-03-10T12:05:30.364Z,9.8
2023-03-10T12:06:07.964Z,9.8
2023-03-10T12:07:29.042Z,9.8
2023-03-10T12:08:08.061Z,9.7
2023-03-10T12:09:30.190Z,9.7
2023-03-10T12:10:08.120Z,9.6
2023-03-10T12:11:29.338Z,9.5
2023-03-10T12:12:08.189Z,9.5
2023-03-10T12:13:28.433Z,9.6
2023-03-10T12:14:08.222Z,9.6
2023-03-10T12:15:28.794Z,9.5
2023-03-10T12:16:08.298Z,9.5
2023-03-10T12:17:28.573Z,9.4
2023-03-10T12:18:08.387Z,9.4
2023-03-10T12:19:29.749Z,9.5
2023-03-10T12:20:08.387Z,9.4
2023-03-10T12:21:28.925Z,9.4
2023-03-10T12:22:08.457Z,9.3
2023-03-10T12:23:28.512Z,9.3
2023-03-10T12:24:08.539Z,9.3
2023-03-10T12:25:28.588Z,9.3
2023-03-10T12:26:08.632Z,9.3
2023-03-10T12:27:29.268Z,9.3
2023-03-10T12:28:08.684Z,9.3
2023-03-10T12:29:29.103Z,9.4
2023-03-10T12:30:08.790Z,9.3
2023-03-10T12:31:29.187Z,9.3
2023-03-10T12:32:08.821Z,9.3
2023-03-10T12:33:28.927Z,9.3
2023-03-10T12:34:08.875Z,9.2
2023-03-10T12:35:28.744Z,9.2
2023-03-10T12:36:09.005Z,9.2
2023-03-10T12:37:30.124Z,9.2
2023-03-10T12:38:09.024Z,9.1
2023-03-10T12:39:29.964Z,9.1
2023-03-10T12:40:09.076Z,9.1
2023-03-10T12:41:28.234Z,9.1
2023-03-10T12:42:09.167Z,9.2
2023-03-10T12:43:29.962Z,9.2
2023-03-10T12:44:09.757Z,9.3
2023-03-10T12:45:29.287Z,9.2
2023-03-10T12:46:09.323Z,9.2
2023-03-10T12:47:29.250Z,9.1
2023-03-10T12:48:09.514Z,9.1
2023-03-10T12:49:29.833Z,9.1
2023-03-10T12:50:09.635Z,9.1
2023-03-10T12:51:29.191Z,9.1
2023-03-10T12:52:09.848Z,9.2
2023-03-10T12:53:29.293Z,9.2
2023-03-10T12:54:09.968Z,9.2
2023-03-10T12:55:29.838Z,9.3
2023-03-10T12:56:10.655Z,9.3
2023-03-10T12:57:21.406Z,9.2
2023-03-10T12:58:24.701Z,9.2
2023-03-10T12:59:15.016Z,9.1
2023-03-10T13:00:10.361Z,9.1
2023-03-10T13:01:10.798Z,9.1
2023-03-10T13:02:10.523Z,9.1
2023-03-10T13:03:10.897Z,9.1
2023-03-10T13:04:10.884Z,9.1
2023-03-10T13:05:10.570Z,9.1
2023-03-10T13:06:10.548Z,9
2023-03-10T13:07:10.510Z,9
2023-03-10T13:08:11.031Z,9
2023-03-10T13:09:10.756Z,9
2023-03-10T13:10:10.693Z,9
2023-03-10T13:11:13.899Z,9.1
2023-03-10T13:12:10.757Z,9.1
2023-03-10T13:13:11.014Z,9.1
2023-03-10T13:14:11.870Z,9
2023-03-10T13:15:10.886Z,9.1
2023-03-10T13:16:10.914Z,9
2023-03-10T13:17:10.928Z,9
2023-03-10T13:18:11.374Z,9
2023-03-10T13:19:10.932Z,8.9
2023-03-10T13:20:20.300Z,9
2023-03-10T13:21:10.989Z,9
2023-03-10T13:22:11.059Z,9
2023-03-10T13:23:19.373Z,9
2023-03-10T13:24:11.148Z,9.1
2023-03-10T13:25:11.145Z,9
2023-03-10T13:26:17.729Z,9.1
2023-03-10T13:27:11.273Z,9.1
2023-03-10T13:28:24.974Z,9
2023-03-10T13:29:19.981Z,9.1
2023-03-10T13:30:11.330Z,9.1
2023-03-10T13:31:11.453Z,9.1
2023-03-10T13:32:20.638Z,9
2023-03-10T13:33:11.418Z,8.9
2023-03-10T13:34:11.430Z,8.9
2023-03-10T13:35:18.479Z,8.9
2023-03-10T13:36:11.578Z,8.9
2023-03-10T13:37:11.598Z,8.9
2023-03-10T13:38:24.143Z,8.9
2023-03-10T13:39:11.669Z,8.9
2023-03-10T13:40:11.703Z,8.9
2023-03-10T13:41:20.218Z,8.9
2023-03-10T13:42:11.815Z,8.9
2023-03-10T13:43:11.890Z,8.9
2023-03-10T13:44:11.961Z,8.9
2023-03-10T13:45:11.843Z,8.9
2023-03-10T13:46:11.955Z,9
2023-03-10T13:47:17.158Z,8.9
2023-03-10T13:48:17.131Z,8.9
2023-03-10T13:49:11.978Z,9
2023-03-10T13:50:20.804Z,8.9
2023-03-10T13:51:12.278Z,8.9
2023-03-10T13:52:12.133Z,9
2023-03-10T13:53:18.759Z,9
2023-03-10T13:54:12.230Z,9
2023-03-10T13:55:12.213Z,9
2023-03-10T13:56:20.613Z,9
2023-03-10T13:57:12.257Z,9
2023-03-10T13:58:24.616Z,9.1
2023-03-10T13:59:18.106Z,9.1